createdAt,value
2019-03-16T00:02:08.602Z,2.10
2019-03-16T00:04:37.757Z,2.83
2019-03-16T00:07:06.945Z,2.43
2019-03-16T00:09:36.177Z,2.53
2019-03-16T00:12:05.493Z,2.83
2019-03-16T00:14:34.657Z,2.63
2019-03-16T00:17:03.783Z,2.80
2019-03-16T00:19:33.115Z,2.57
2019-03-16T00:22:02.192Z,2.80
2019-03-16T00:24:31.480Z,3.03
2019-03-16T00:27:00.555Z,2.93
2019-03-16T00:29:29.897Z,2.60
2019-03-16T00:32:12.545Z,2.80
2019-03-16T00:34:30.252Z,2.40
2019-03-16T00:36:59.860Z,2.57
2019-03-16T00:39:29.126Z,2.40
2019-03-16T00:41:58.370Z,2.80
2019-03-16T00:44:27.458Z,2.80
2019-03-16T00:46:56.771Z,3.03
2019-03-16T00:49:25.899Z,2.60
2019-03-16T00:51:55.377Z,3.00
2019-03-16T00:54:24.662Z,3.73
2019-03-16T00:56:56.126Z,3.20
2019-03-16T00:59:25.453Z,2.43
2019-03-16T01:01:56.891Z,2.60
2019-03-16T01:04:26.204Z,2.33
2019-03-16T01:06:55.301Z,2.97
2019-03-16T01:09:24.392Z,2.70
2019-03-16T01:11:55.434Z,2.30
2019-03-16T01:14:24.666Z,2.47
2019-03-16T01:16:54.048Z,2.10
2019-03-16T01:19:23.140Z,2.33
2019-03-16T01:21:52.533Z,2.20
2019-03-16T01:24:22.005Z,2.37
2019-03-16T01:26:51.280Z,2.10
2019-03-16T01:29:20.378Z,2.50
2019-03-16T01:31:49.399Z,2.60
2019-03-16T01:34:18.616Z,2.50
2019-03-16T01:36:47.743Z,2.10
2019-03-16T01:39:16.841Z,2.30
2019-03-16T01:41:46.028Z,2.20
2019-03-16T01:44:15.360Z,1.93
2019-03-16T01:46:44.556Z,2.17
2019-03-16T01:49:13.812Z,1.97
2019-03-16T01:51:43.055Z,1.80
2019-03-16T01:54:12.142Z,2.10
2019-03-16T01:56:41.524Z,2.20
2019-03-16T01:59:10.780Z,2.10
2019-03-16T02:01:40.223Z,2.07
2019-03-16T02:04:09.235Z,2.37
2019-03-16T02:06:38.342Z,1.97
2019-03-16T02:09:08.456Z,2.60
2019-03-16T02:11:37.737Z,2.20
2019-03-16T02:14:06.830Z,2.43
2019-03-16T02:16:36.055Z,2.30
2019-03-16T02:19:05.489Z,2.50
2019-03-16T02:21:34.971Z,2.20
2019-03-16T02:24:04.243Z,2.53
2019-03-16T02:26:33.328Z,2.03
2019-03-16T02:29:02.558Z,2.70
2019-03-16T02:31:31.600Z,2.53
2019-03-16T02:34:00.900Z,2.90
2019-03-16T02:36:29.997Z,2.60
2019-03-16T02:38:59.222Z,2.30
2019-03-16T02:41:28.582Z,2.70
2019-03-16T02:43:57.734Z,2.50
2019-03-16T02:46:26.821Z,2.80
2019-03-16T02:48:56.137Z,2.67
2019-03-16T02:51:25.362Z,2.77
2019-03-16T02:53:54.428Z,2.40
2019-03-16T02:56:23.695Z,2.60
2019-03-16T02:58:53.000Z,2.47
2019-03-16T03:01:22.102Z,2.30
2019-03-16T03:03:51.609Z,3.17
2019-03-16T03:06:20.648Z,2.73
2019-03-16T03:08:49.940Z,3.00
2019-03-16T03:11:19.077Z,2.57
2019-03-16T03:13:48.168Z,2.50
2019-03-16T03:16:17.523Z,3.03
2019-03-16T03:18:49.560Z,2.67
2019-03-16T03:21:18.033Z,3.20
2019-03-16T03:23:47.123Z,2.73
2019-03-16T03:26:16.248Z,3.00
2019-03-16T03:28:45.571Z,2.97
2019-03-16T03:31:14.790Z,2.50
2019-03-16T03:33:58.932Z,2.70
2019-03-16T03:36:16.792Z,2.27
2019-03-16T03:38:45.925Z,3.00
2019-03-16T03:41:15.042Z,2.70
2019-03-16T03:43:44.081Z,2.63
2019-03-16T03:46:13.209Z,2.80
2019-03-16T03:48:42.321Z,3.10
2019-03-16T03:51:11.697Z,2.70
2019-03-16T03:53:41.501Z,3.53
2019-03-16T03:56:10.841Z,3.10
2019-03-16T03:58:40.306Z,3.87
2019-03-16T04:01:09.401Z,3.60
2019-03-16T04:03:38.628Z,3.20
2019-03-16T04:06:07.890Z,4.00
2019-03-16T04:08:37.000Z,5.10
2019-03-16T04:11:06.265Z,5.10
2019-03-16T04:13:35.327Z,4.80
2019-03-16T04:16:04.684Z,6.00
2019-03-16T04:18:33.933Z,6.27
2019-03-16T04:21:03.357Z,3.77
2019-03-16T04:23:32.436Z,3.77
2019-03-16T04:26:01.664Z,4.40
2019-03-16T04:28:30.770Z,4.40
2019-03-16T04:31:00.039Z,3.93
2019-03-16T04:33:29.512Z,4.10
2019-03-16T04:35:58.573Z,4.00
2019-03-16T04:38:27.800Z,4.30
2019-03-16T04:40:56.860Z,3.87
2019-03-16T04:43:26.190Z,4.70
2019-03-16T04:45:55.257Z,4.80
2019-03-16T04:48:24.562Z,5.30
2019-03-16T04:50:53.798Z,4.80
2019-03-16T04:53:23.013Z,4.20
2019-03-16T04:55:52.314Z,4.50
2019-03-16T04:58:21.465Z,5.17
2019-03-16T05:00:50.611Z,5.17
2019-03-16T05:03:20.030Z,4.50
2019-03-16T05:05:49.110Z,5.53
2019-03-16T05:08:18.625Z,4.83
2019-03-16T05:10:47.905Z,4.40
2019-03-16T05:13:19.255Z,5.50
2019-03-16T05:15:50.932Z,5.77
2019-03-16T05:18:19.344Z,5.10
2019-03-16T05:20:48.629Z,5.23
2019-03-16T05:23:17.926Z,4.93
2019-03-16T05:25:47.013Z,4.80
2019-03-16T05:28:16.070Z,5.53
2019-03-16T05:30:45.266Z,6.17
2019-03-16T05:33:14.582Z,5.93
2019-03-16T05:35:45.621Z,5.10
2019-03-16T05:38:15.044Z,4.60
2019-03-16T05:40:44.186Z,5.53
2019-03-16T05:43:13.350Z,5.97
2019-03-16T05:45:42.641Z,5.73
2019-03-16T05:48:11.760Z,5.80
2019-03-16T05:50:41.248Z,5.87
2019-03-16T05:53:10.297Z,5.73
2019-03-16T05:55:39.381Z,5.37
2019-03-16T05:58:08.770Z,4.60
2019-03-16T06:00:37.841Z,5.10
2019-03-16T06:03:07.114Z,5.47
2019-03-16T06:05:36.274Z,5.00
2019-03-16T06:08:05.422Z,4.67
2019-03-16T06:10:34.768Z,4.40
2019-03-16T06:13:03.845Z,4.80
2019-03-16T06:15:33.101Z,4.87
2019-03-16T06:18:02.535Z,4.40
2019-03-16T06:20:31.586Z,4.30
2019-03-16T06:23:00.885Z,4.63
2019-03-16T06:25:30.102Z,4.17
2019-03-16T06:27:59.207Z,5.20
2019-03-16T06:30:28.765Z,4.33
2019-03-16T06:32:57.856Z,4.60
2019-03-16T06:35:29.410Z,4.03
2019-03-16T06:37:57.875Z,4.60
2019-03-16T06:40:27.496Z,4.07
2019-03-16T06:42:56.548Z,4.53
2019-03-16T06:45:26.070Z,4.77
2019-03-16T06:47:55.350Z,4.00
2019-03-16T06:50:24.453Z,3.83
2019-03-16T06:52:53.514Z,4.17
2019-03-16T06:55:22.617Z,4.50
2019-03-16T06:57:51.830Z,4.43
2019-03-16T07:00:21.135Z,4.10
2019-03-16T07:02:50.496Z,3.70
2019-03-16T07:05:23.309Z,4.47
2019-03-16T07:07:50.420Z,4.40
2019-03-16T07:10:19.480Z,3.57
2019-03-16T07:12:48.588Z,3.90
2019-03-16T07:15:17.833Z,3.30
2019-03-16T07:17:46.923Z,3.60
2019-03-16T07:20:16.106Z,4.63
2019-03-16T07:22:45.208Z,4.67
2019-03-16T07:25:14.498Z,3.90
2019-03-16T07:27:43.617Z,3.77
2019-03-16T07:30:13.002Z,4.70
2019-03-16T07:32:42.082Z,4.03
2019-03-16T07:35:11.276Z,3.60
2019-03-16T07:37:40.346Z,4.13
2019-03-16T07:40:09.953Z,5.43
2019-03-16T07:42:39.173Z,3.93
2019-03-16T07:45:09.282Z,3.77
2019-03-16T07:47:38.369Z,3.20
2019-03-16T07:50:07.634Z,4.40
2019-03-16T07:52:36.838Z,3.90
2019-03-16T07:55:06.493Z,3.33
2019-03-16T07:57:40.372Z,4.20
2019-03-16T08:00:07.322Z,3.30
2019-03-16T08:02:36.753Z,3.70
2019-03-16T08:05:17.484Z,3.80
2019-03-16T08:07:37.146Z,2.97
2019-03-16T08:10:06.803Z,3.10
2019-03-16T08:12:35.932Z,3.97
2019-03-16T08:15:05.599Z,3.07
2019-03-16T08:17:35.135Z,3.50
2019-03-16T08:20:05.044Z,3.90
2019-03-16T08:22:34.224Z,3.20
2019-03-16T08:25:03.530Z,2.97
2019-03-16T08:27:32.649Z,2.90
2019-03-16T08:30:01.834Z,2.93
2019-03-16T08:32:31.136Z,3.17
2019-03-16T08:35:01.043Z,3.13
2019-03-16T08:37:30.409Z,2.80
2019-03-16T08:39:59.499Z,3.40
2019-03-16T08:42:28.545Z,3.93
2019-03-16T08:44:57.654Z,2.53
2019-03-16T08:47:26.748Z,2.30
2019-03-16T08:49:55.838Z,2.80
2019-03-16T08:52:24.929Z,2.37
2019-03-16T08:54:54.085Z,3.07
2019-03-16T08:57:23.354Z,2.30
2019-03-16T08:59:52.642Z,1.77
2019-03-16T09:02:21.938Z,2.73
2019-03-16T09:04:50.986Z,2.47
2019-03-16T09:07:20.275Z,2.40
2019-03-16T09:09:49.514Z,2.47
2019-03-16T09:12:18.806Z,2.20
2019-03-16T09:14:48.043Z,3.07
2019-03-16T09:17:17.162Z,2.80
2019-03-16T09:19:46.281Z,2.80
2019-03-16T09:22:15.627Z,2.83
2019-03-16T09:24:44.855Z,2.00
2019-03-16T09:27:14.210Z,2.10
2019-03-16T09:29:43.441Z,2.30
2019-03-16T09:32:12.534Z,2.10
2019-03-16T09:34:41.708Z,2.00
2019-03-16T09:37:10.868Z,1.60
2019-03-16T09:39:40.105Z,2.40
2019-03-16T09:42:09.333Z,2.00
2019-03-16T09:44:38.581Z,1.50
2019-03-16T09:47:07.908Z,2.10
2019-03-16T09:49:37.194Z,1.70
2019-03-16T09:52:06.506Z,2.10
2019-03-16T09:54:35.814Z,1.87
2019-03-16T09:57:05.032Z,1.93
2019-03-16T09:59:34.318Z,1.60
2019-03-16T10:02:03.430Z,2.00
2019-03-16T10:04:32.629Z,2.17
2019-03-16T10:07:01.761Z,1.70
2019-03-16T10:09:30.791Z,1.70
2019-03-16T10:12:00.112Z,1.87
2019-03-16T10:14:29.204Z,2.37
2019-03-16T10:16:58.401Z,1.73
2019-03-16T10:19:27.635Z,2.07
2019-03-16T10:21:57.031Z,1.87
2019-03-16T10:24:27.427Z,2.17
2019-03-16T10:26:57.180Z,1.73
2019-03-16T10:29:26.529Z,2.00
2019-03-16T10:31:55.735Z,2.30
2019-03-16T10:34:26.800Z,1.87
2019-03-16T10:36:56.219Z,1.77
2019-03-16T10:39:25.334Z,2.70
2019-03-16T10:41:54.653Z,2.30
2019-03-16T10:44:23.770Z,1.60
2019-03-16T10:46:53.149Z,1.90
2019-03-16T10:49:22.243Z,2.30
2019-03-16T10:51:51.374Z,2.30
2019-03-16T10:54:20.660Z,2.07
2019-03-16T10:56:51.033Z,1.80
2019-03-16T10:59:20.228Z,2.50
2019-03-16T11:01:49.452Z,1.77
2019-03-16T11:04:18.623Z,1.73
2019-03-16T11:06:47.804Z,1.73
2019-03-16T11:09:17.017Z,1.50
2019-03-16T11:11:46.172Z,1.60
2019-03-16T11:14:15.404Z,1.80
2019-03-16T11:16:44.658Z,1.30
2019-03-16T11:19:13.891Z,1.30
2019-03-16T11:21:43.194Z,1.60
2019-03-16T11:24:12.339Z,1.47
2019-03-16T11:26:41.453Z,1.47
2019-03-16T11:29:10.750Z,1.33
2019-03-16T11:31:40.319Z,1.10
2019-03-16T11:34:09.519Z,1.03
2019-03-16T11:36:38.822Z,0.90
2019-03-16T11:39:09.231Z,1.30
2019-03-16T11:41:38.335Z,1.10
2019-03-16T11:44:07.487Z,1.40
2019-03-16T11:46:36.543Z,2.93
2019-03-16T11:49:05.739Z,1.10
2019-03-16T11:51:34.864Z,1.37
2019-03-16T11:54:04.229Z,1.27
2019-03-16T11:56:33.314Z,1.10
2019-03-16T11:59:02.520Z,1.50
2019-03-16T12:01:31.602Z,1.10
2019-03-16T12:04:00.762Z,1.00
2019-03-16T12:06:30.072Z,1.17
2019-03-16T12:08:59.613Z,1.20
2019-03-16T12:11:28.739Z,1.00
2019-03-16T12:13:57.860Z,1.00
2019-03-16T12:16:27.238Z,1.00
2019-03-16T12:18:56.404Z,1.30
2019-03-16T12:21:25.526Z,1.50
2019-03-16T12:23:54.629Z,1.10
2019-03-16T12:26:23.922Z,0.90
2019-03-16T12:28:53.024Z,0.90
2019-03-16T12:31:22.420Z,0.87
2019-03-16T12:33:52.020Z,1.27
2019-03-16T12:36:21.125Z,0.97
2019-03-16T12:38:50.244Z,1.20
2019-03-16T12:41:19.363Z,0.93
2019-03-16T12:43:48.586Z,1.00
2019-03-16T12:46:17.720Z,1.00
2019-03-16T12:48:46.813Z,1.10
2019-03-16T12:51:16.117Z,0.90
2019-03-16T12:53:45.579Z,1.30
2019-03-16T12:56:14.825Z,1.10
2019-03-16T12:58:44.086Z,1.17
2019-03-16T13:01:13.216Z,1.23
2019-03-16T13:03:42.331Z,1.10
2019-03-16T13:06:11.577Z,1.10
2019-03-16T13:08:40.647Z,1.00
2019-03-16T13:11:10.073Z,1.17
2019-03-16T13:13:39.207Z,1.07
2019-03-16T13:16:08.290Z,1.07
2019-03-16T13:18:37.469Z,1.07
2019-03-16T13:21:06.786Z,1.00
2019-03-16T13:23:35.893Z,0.90
2019-03-16T13:26:05.039Z,1.17
2019-03-16T13:28:35.713Z,1.00
2019-03-16T13:31:05.073Z,1.00
2019-03-16T13:33:34.171Z,1.20
2019-03-16T13:36:03.232Z,1.00
2019-03-16T13:38:32.534Z,1.07
2019-03-16T13:41:01.664Z,1.07
2019-03-16T13:43:30.976Z,1.30
2019-03-16T13:46:00.129Z,2.10
2019-03-16T13:48:29.269Z,1.40
2019-03-16T13:50:58.639Z,1.10
2019-03-16T13:53:27.728Z,1.00
2019-03-16T13:55:57.347Z,1.20
2019-03-16T13:58:26.505Z,1.10
2019-03-16T14:00:55.532Z,1.00
2019-03-16T14:03:24.739Z,1.00
2019-03-16T14:05:54.034Z,0.93
2019-03-16T14:08:23.114Z,1.07
2019-03-16T14:10:53.225Z,1.10
2019-03-16T14:13:24.931Z,1.20
2019-03-16T14:15:54.722Z,1.20
2019-03-16T14:18:23.801Z,1.10
2019-03-16T14:20:54.820Z,1.20
2019-03-16T14:23:25.778Z,0.90
2019-03-16T14:25:55.287Z,1.13
2019-03-16T14:28:24.584Z,1.20
2019-03-16T14:30:54.220Z,1.20
2019-03-16T14:33:23.908Z,1.10
2019-03-16T14:35:53.222Z,1.07
2019-03-16T14:38:22.278Z,1.43
2019-03-16T14:40:51.732Z,1.50
2019-03-16T14:43:20.857Z,1.80
2019-03-16T14:45:50.005Z,1.30
2019-03-16T14:48:19.221Z,2.00
2019-03-16T14:50:48.593Z,1.33
2019-03-16T14:53:17.940Z,2.07
2019-03-16T14:55:47.042Z,2.13
2019-03-16T14:58:16.121Z,2.70
2019-03-16T15:00:45.345Z,2.40
2019-03-16T15:03:14.582Z,1.10
2019-03-16T15:05:45.938Z,1.50
2019-03-16T15:08:15.241Z,1.47
2019-03-16T15:10:44.442Z,1.30
2019-03-16T15:13:13.571Z,1.30
2019-03-16T15:15:42.695Z,1.10
2019-03-16T15:18:11.889Z,1.33
2019-03-16T15:20:40.983Z,1.20
2019-03-16T15:23:10.167Z,1.80
2019-03-16T15:25:39.733Z,1.40
2019-03-16T15:28:08.845Z,1.80
2019-03-16T15:30:49.818Z,1.63
2019-03-16T15:33:09.278Z,1.80
2019-03-16T15:35:38.489Z,2.07
2019-03-16T15:38:07.567Z,1.60
2019-03-16T15:40:38.380Z,1.40
2019-03-16T15:43:08.000Z,1.70
2019-03-16T15:45:37.239Z,4.63
2019-03-16T15:48:06.521Z,2.47
2019-03-16T15:50:35.821Z,1.50
2019-03-16T15:53:05.010Z,1.40
2019-03-16T15:55:34.227Z,1.50
2019-03-16T15:58:08.327Z,1.53
2019-03-16T16:00:34.457Z,1.63
2019-03-16T16:03:04.084Z,1.63
2019-03-16T16:05:33.253Z,1.30
2019-03-16T16:08:02.499Z,1.27
2019-03-16T16:10:31.557Z,1.40
2019-03-16T16:13:02.507Z,1.40
2019-03-16T16:15:31.724Z,1.50
2019-03-16T16:18:00.932Z,1.37
2019-03-16T16:20:30.035Z,1.60
2019-03-16T16:22:59.533Z,1.53
2019-03-16T16:25:28.693Z,1.30
2019-03-16T16:27:58.082Z,1.20
2019-03-16T16:30:27.109Z,1.33
2019-03-16T16:32:56.269Z,1.40
2019-03-16T16:35:25.593Z,1.53
2019-03-16T16:37:54.720Z,1.60
2019-03-16T16:40:24.868Z,1.30
2019-03-16T16:42:54.320Z,1.40
2019-03-16T16:45:23.574Z,1.50
2019-03-16T16:47:52.862Z,1.50
2019-03-16T16:50:22.045Z,1.30
2019-03-16T16:52:51.139Z,1.60
2019-03-16T16:55:20.267Z,1.60
2019-03-16T16:57:49.509Z,1.57
2019-03-16T17:00:18.777Z,1.70
2019-03-16T17:02:47.963Z,1.50
2019-03-16T17:05:17.114Z,1.57
2019-03-16T17:07:46.323Z,1.80
2019-03-16T17:10:15.695Z,1.50
2019-03-16T17:12:44.827Z,1.50
2019-03-16T17:15:14.165Z,1.70
2019-03-16T17:17:43.281Z,1.60
2019-03-16T17:20:12.875Z,1.50
2019-03-16T17:22:42.191Z,1.67
2019-03-16T17:25:12.108Z,2.10
2019-03-16T17:27:41.234Z,1.53
2019-03-16T17:30:16.464Z,1.60
2019-03-16T17:32:45.830Z,1.70
2019-03-16T17:35:15.125Z,1.90
2019-03-16T17:37:44.837Z,1.80
2019-03-16T17:40:14.327Z,2.23
2019-03-16T17:42:43.699Z,1.50
2019-03-16T17:45:12.856Z,1.60
2019-03-16T17:47:42.042Z,1.93
2019-03-16T17:50:11.788Z,2.03
2019-03-16T17:52:41.135Z,1.80
2019-03-16T17:55:10.716Z,1.60
2019-03-16T17:57:40.139Z,1.70
2019-03-16T18:00:12.410Z,1.60
2019-03-16T18:02:51.187Z,1.57
2019-03-16T18:05:15.307Z,2.00
2019-03-16T18:07:45.147Z,1.60
2019-03-16T18:10:15.298Z,1.90
2019-03-16T18:12:44.952Z,1.60
2019-03-16T18:15:14.045Z,1.80
2019-03-16T18:17:43.186Z,1.73
2019-03-16T18:20:12.902Z,2.03
2019-03-16T18:22:42.239Z,1.80
2019-03-16T18:25:11.712Z,1.90
2019-03-16T18:27:41.301Z,2.40
2019-03-16T18:30:12.354Z,1.70
2019-03-16T18:32:41.573Z,2.20
2019-03-16T18:35:11.025Z,2.20
2019-03-16T18:37:40.140Z,2.10
2019-03-16T18:40:11.224Z,1.63
2019-03-16T18:42:40.517Z,1.80
2019-03-16T18:45:11.988Z,2.13
2019-03-16T18:47:41.094Z,1.80
2019-03-16T18:50:10.244Z,3.57
2019-03-16T18:52:39.330Z,3.03
2019-03-16T18:55:09.695Z,2.53
2019-03-16T18:57:38.762Z,2.20
2019-03-16T19:00:08.916Z,2.73
2019-03-16T19:02:38.836Z,3.40
2019-03-16T19:05:08.890Z,3.93
2019-03-16T19:07:38.809Z,4.83
2019-03-16T19:10:09.900Z,3.90
2019-03-16T19:12:39.129Z,4.13
2019-03-16T19:15:10.118Z,5.37
2019-03-16T19:17:39.444Z,3.40
2019-03-16T19:20:09.886Z,2.80
2019-03-16T19:22:39.265Z,4.77
2019-03-16T19:25:10.068Z,6.40
2019-03-16T19:27:39.710Z,10.83
2019-03-16T19:30:10.911Z,6.33
2019-03-16T19:32:40.424Z,5.97
2019-03-16T19:35:09.723Z,10.60
2019-03-16T19:37:38.997Z,10.37
2019-03-16T19:40:11.226Z,11.10
2019-03-16T19:42:40.337Z,10.57
2019-03-16T19:45:09.641Z,10.37
2019-03-16T19:47:38.765Z,8.73
2019-03-16T19:50:31.970Z,5.63
2019-03-16T19:54:11.260Z,4.30
2019-03-16T19:57:45.685Z,12.20
2019-03-16T20:01:04.113Z,13.23
2019-03-16T20:04:14.193Z,15.80
2019-03-16T20:07:18.845Z,11.70
2019-03-16T20:11:05.944Z,22.97
2019-03-16T20:14:06.888Z,10.27
2019-03-16T20:16:36.406Z,9.43
2019-03-16T20:19:05.718Z,9.50
2019-03-16T20:21:35.356Z,10.17
2019-03-16T20:24:04.767Z,12.17
2019-03-16T20:26:33.849Z,8.90
2019-03-16T20:29:03.029Z,9.90
2019-03-16T20:31:32.252Z,12.47
2019-03-16T20:34:01.535Z,11.20
2019-03-16T20:36:31.673Z,7.40
2019-03-16T20:39:03.227Z,9.13
2019-03-16T20:41:36.524Z,9.10
2019-03-16T20:44:04.148Z,7.83
2019-03-16T20:46:33.359Z,7.27
2019-03-16T20:49:03.466Z,8.23
2019-03-16T20:51:33.507Z,8.80
2019-03-16T20:54:02.644Z,7.40
2019-03-16T20:56:31.854Z,9.13
2019-03-16T20:59:01.164Z,8.73
2019-03-16T21:01:30.553Z,9.07
2019-03-16T21:04:00.424Z,11.60
2019-03-16T21:06:29.749Z,15.60
2019-03-16T21:09:03.432Z,9.07
2019-03-16T21:11:30.257Z,7.27
2019-03-16T21:13:59.378Z,8.83
2019-03-16T21:16:28.584Z,11.73
2019-03-16T21:18:57.953Z,10.23
2019-03-16T21:21:27.068Z,9.00
2019-03-16T21:23:56.279Z,8.33
2019-03-16T21:26:25.401Z,7.53
2019-03-16T21:28:54.649Z,9.27
2019-03-16T21:31:23.762Z,9.80
2019-03-16T21:33:53.117Z,9.20
2019-03-16T21:36:22.235Z,9.73
2019-03-16T21:38:51.547Z,9.90
2019-03-16T21:41:20.688Z,11.00
2019-03-16T21:43:49.857Z,11.53
2019-03-16T21:46:19.226Z,10.90
2019-03-16T21:48:48.311Z,11.60
2019-03-16T21:51:17.706Z,11.67
2019-03-16T21:53:46.871Z,11.43
2019-03-16T21:56:15.994Z,10.70
2019-03-16T21:58:45.350Z,11.70
2019-03-16T22:01:14.503Z,13.47
2019-03-16T22:03:43.751Z,13.30
2019-03-16T22:06:13.004Z,14.00
2019-03-16T22:08:42.256Z,13.10
2019-03-16T22:11:11.469Z,13.20
2019-03-16T22:13:40.681Z,12.80
2019-03-16T22:16:11.799Z,11.97
2019-03-16T22:18:41.034Z,12.70
2019-03-16T22:21:10.269Z,11.47
2019-03-16T22:23:39.543Z,12.73
2019-03-16T22:26:08.770Z,13.70
2019-03-16T22:28:37.963Z,11.07
2019-03-16T22:31:07.158Z,10.00
2019-03-16T22:33:36.313Z,9.90
2019-03-16T22:36:05.625Z,10.23
2019-03-16T22:38:34.948Z,10.60
2019-03-16T22:41:04.181Z,10.93
2019-03-16T22:43:33.622Z,11.10
2019-03-16T22:46:02.768Z,9.70
2019-03-16T22:48:32.081Z,11.90
2019-03-16T22:51:01.474Z,10.83
2019-03-16T22:53:30.621Z,10.50
2019-03-16T22:55:59.908Z,11.27
2019-03-16T22:58:29.146Z,11.00
2019-03-16T23:00:58.666Z,11.27
2019-03-16T23:03:28.161Z,11.63
2019-03-16T23:05:57.273Z,12.33
2019-03-16T23:08:26.487Z,10.90
2019-03-16T23:10:55.613Z,10.90
2019-03-16T23:13:24.910Z,9.70
2019-03-16T23:15:54.223Z,10.60
2019-03-16T23:18:23.351Z,9.60
2019-03-16T23:20:52.703Z,11.07
2019-03-16T23:23:21.823Z,10.17
2019-03-16T23:25:51.024Z,9.30
2019-03-16T23:28:20.226Z,9.93
2019-03-16T23:30:49.652Z,8.97
2019-03-16T23:33:18.695Z,9.57
2019-03-16T23:35:47.831Z,9.37
2019-03-16T23:38:17.129Z,9.03
2019-03-16T23:40:46.549Z,7.70
2019-03-16T23:43:15.787Z,9.43
2019-03-16T23:45:45.007Z,9.10
2019-03-16T23:48:14.365Z,8.73
2019-03-16T23:50:43.491Z,8.77
2019-03-16T23:53:12.559Z,8.27
2019-03-16T23:55:41.677Z,8.90
2019-03-16T23:58:10.820Z,7.70
